createdAt,value
2019-01-12T00:00:47.596Z,6.75
2019-01-12T00:02:48.993Z,6.81
2019-01-12T00:04:50.358Z,6.75
2019-01-12T00:06:51.943Z,6.74
2019-01-12T00:08:53.308Z,6.80
2019-01-12T00:10:54.682Z,6.77
2019-01-12T00:12:56.121Z,6.78
2019-01-12T00:14:57.494Z,6.75
2019-01-12T00:16:58.925Z,6.75
2019-01-12T00:19:00.406Z,6.76
2019-01-12T00:21:01.839Z,6.75
2019-01-12T00:23:03.360Z,6.74
2019-01-12T00:25:06.348Z,6.78
2019-01-12T00:27:07.733Z,6.78
2019-01-12T00:29:09.177Z,6.75
2019-01-12T00:31:10.557Z,6.77
2019-01-12T00:33:11.938Z,6.69
2019-01-12T00:35:13.354Z,6.73
2019-01-12T00:37:14.731Z,6.71
2019-01-12T00:39:16.157Z,6.75
2019-01-12T00:41:17.561Z,6.77
2019-01-12T00:43:18.941Z,6.80
2019-01-12T00:45:20.341Z,6.71
2019-01-12T00:47:21.739Z,6.65
2019-01-12T00:49:23.128Z,6.73
2019-01-12T00:51:24.724Z,6.75
2019-01-12T00:53:26.222Z,6.75
2019-01-12T00:55:27.606Z,6.74
2019-01-12T00:57:29.019Z,6.72
2019-01-12T00:59:30.380Z,6.66
2019-01-12T01:01:31.760Z,6.63
2019-01-12T01:03:33.382Z,6.68
2019-01-12T01:05:34.762Z,6.67
2019-01-12T01:07:36.260Z,6.67
2019-01-12T01:09:37.690Z,6.65
2019-01-12T01:11:39.068Z,6.65
2019-01-12T01:13:40.511Z,6.69
2019-01-12T01:15:41.959Z,6.73
2019-01-12T01:17:43.682Z,6.72
2019-01-12T01:19:45.080Z,6.65
2019-01-12T01:21:46.538Z,6.68
2019-01-12T01:23:47.907Z,6.69
2019-01-12T01:25:49.301Z,6.67
2019-01-12T01:27:50.715Z,6.71
2019-01-12T01:29:52.152Z,6.72
2019-01-12T01:31:53.516Z,6.66
2019-01-12T01:33:54.898Z,6.67
2019-01-12T01:35:56.306Z,6.63
2019-01-12T01:37:57.702Z,6.63
2019-01-12T01:39:59.076Z,6.69
2019-01-12T01:42:00.502Z,6.62
2019-01-12T01:44:02.216Z,6.61
2019-01-12T01:46:03.603Z,6.65
2019-01-12T01:48:05.007Z,6.56
2019-01-12T01:50:09.509Z,6.59
2019-01-12T01:52:10.882Z,6.58
2019-01-12T01:54:12.306Z,6.63
2019-01-12T01:56:13.769Z,6.61
2019-01-12T01:58:15.133Z,6.60
2019-01-12T02:00:17.008Z,6.46
2019-01-12T02:02:18.404Z,6.51
2019-01-12T02:04:19.797Z,6.52
2019-01-12T02:06:21.274Z,6.59
2019-01-12T02:08:22.694Z,6.53
2019-01-12T02:10:24.058Z,6.53
2019-01-12T02:12:25.466Z,6.49
2019-01-12T02:14:26.904Z,6.54
2019-01-12T02:16:28.308Z,6.49
2019-01-12T02:18:29.851Z,6.57
2019-01-12T02:20:31.385Z,6.52
2019-01-12T02:22:32.780Z,6.55
2019-01-12T02:24:34.216Z,6.57
2019-01-12T02:26:35.596Z,6.49
2019-01-12T02:28:36.997Z,6.50
2019-01-12T02:30:38.425Z,6.52
2019-01-12T02:32:39.794Z,6.56
2019-01-12T02:34:41.166Z,6.50
2019-01-12T02:36:42.572Z,6.52
2019-01-12T02:38:43.943Z,6.53
2019-01-12T02:40:45.335Z,6.52
2019-01-12T02:42:46.765Z,6.45
2019-01-12T02:44:48.138Z,6.48
2019-01-12T02:46:49.525Z,6.48
2019-01-12T02:48:50.931Z,6.46
2019-01-12T02:50:52.326Z,6.42
2019-01-12T02:52:53.725Z,6.53
2019-01-12T02:54:55.161Z,6.45
2019-01-12T02:56:56.849Z,6.44
2019-01-12T02:58:58.202Z,6.37
2019-01-12T03:00:59.632Z,6.36
2019-01-12T03:03:01.056Z,6.33
2019-01-12T03:05:04.652Z,6.35
2019-01-12T03:07:06.153Z,6.35
2019-01-12T03:09:07.651Z,6.34
2019-01-12T03:11:09.035Z,6.29
2019-01-12T03:13:10.463Z,6.32
2019-01-12T03:15:14.461Z,6.35
2019-01-12T03:17:15.918Z,6.31
2019-01-12T03:19:17.382Z,6.36
2019-01-12T03:21:18.754Z,6.34
2019-01-12T03:23:20.192Z,6.30
2019-01-12T03:25:21.832Z,6.27
2019-01-12T03:27:23.230Z,6.26
2019-01-12T03:29:24.615Z,6.29
2019-01-12T03:31:26.070Z,6.23
2019-01-12T03:33:27.506Z,6.30
2019-01-12T03:35:28.910Z,6.24
2019-01-12T03:37:30.532Z,6.25
2019-01-12T03:39:31.900Z,6.20
2019-01-12T03:41:33.309Z,6.22
2019-01-12T03:43:34.727Z,6.25
2019-01-12T03:45:36.112Z,6.21
2019-01-12T03:47:37.529Z,6.21
2019-01-12T03:49:38.898Z,6.22
2019-01-12T03:51:40.416Z,6.20
2019-01-12T03:53:41.852Z,6.15
2019-01-12T03:55:43.315Z,6.14
2019-01-12T03:57:44.713Z,6.09
2019-01-12T03:59:46.145Z,6.11
2019-01-12T04:01:47.576Z,6.21
2019-01-12T04:03:48.968Z,6.19
2019-01-12T04:05:50.340Z,6.21
2019-01-12T04:07:51.883Z,6.25
2019-01-12T04:09:53.275Z,6.21
2019-01-12T04:11:54.670Z,6.28
2019-01-12T04:13:56.107Z,6.25
2019-01-12T04:15:57.541Z,6.16
2019-01-12T04:17:58.964Z,6.18
2019-01-12T04:20:00.338Z,6.13
2019-01-12T04:22:01.783Z,6.10
2019-01-12T04:24:03.308Z,6.10
2019-01-12T04:26:04.746Z,6.15
2019-01-12T04:28:06.223Z,6.15
2019-01-12T04:30:12.107Z,6.18
2019-01-12T04:32:13.536Z,6.19
2019-01-12T04:34:14.978Z,6.15
2019-01-12T04:36:16.608Z,6.17
2019-01-12T04:38:17.984Z,6.14
2019-01-12T04:40:19.572Z,6.14
2019-01-12T04:42:21.016Z,6.12
2019-01-12T04:44:22.377Z,6.10
2019-01-12T04:46:23.757Z,6.08
2019-01-12T04:48:25.181Z,6.08
2019-01-12T04:50:26.560Z,6.08
2019-01-12T04:52:27.937Z,6.07
2019-01-12T04:54:29.375Z,6.08
2019-01-12T04:56:30.750Z,6.04
2019-01-12T04:58:32.150Z,6.10
2019-01-12T05:00:33.560Z,6.10
2019-01-12T05:02:34.949Z,6.11
2019-01-12T05:04:36.330Z,6.07
2019-01-12T05:06:37.766Z,6.09
2019-01-12T05:08:39.143Z,6.10
2019-01-12T05:10:40.517Z,6.10
2019-01-12T05:12:42.038Z,6.09
2019-01-12T05:14:43.435Z,6.08
2019-01-12T05:16:44.873Z,6.10
2019-01-12T05:18:46.309Z,6.13
2019-01-12T05:20:48.200Z,6.11
2019-01-12T05:22:50.032Z,6.12
2019-01-12T05:24:51.756Z,6.07
2019-01-12T05:26:53.439Z,6.08
2019-01-12T05:28:55.125Z,6.09
2019-01-12T05:30:56.842Z,6.08
2019-01-12T05:32:58.517Z,6.09
2019-01-12T05:35:00.285Z,6.14
2019-01-12T05:37:02.005Z,6.11
2019-01-12T05:39:05.698Z,6.14
2019-01-12T05:41:07.636Z,6.09
2019-01-12T05:43:09.316Z,6.10
2019-01-12T05:45:11.792Z,6.11
2019-01-12T05:47:13.518Z,6.10
2019-01-12T05:49:15.455Z,6.08
2019-01-12T05:51:17.159Z,6.14
2019-01-12T05:53:18.850Z,6.11
2019-01-12T05:55:20.587Z,6.09
2019-01-12T05:57:22.269Z,6.10
2019-01-12T05:59:23.941Z,6.12
2019-01-12T06:01:25.659Z,6.13
2019-01-12T06:03:27.360Z,6.11
2019-01-12T06:05:30.619Z,6.13
2019-01-12T06:07:32.309Z,6.12
2019-01-12T06:09:34.010Z,6.10
2019-01-12T06:11:35.846Z,6.14
2019-01-12T06:13:37.618Z,6.17
2019-01-12T06:15:39.003Z,6.14
2019-01-12T06:17:40.729Z,6.09
2019-01-12T06:19:42.123Z,6.12
2019-01-12T06:21:43.638Z,6.08
2019-01-12T06:23:45.271Z,6.10
2019-01-12T06:25:46.659Z,6.07
2019-01-12T06:27:48.046Z,6.08
2019-01-12T06:29:49.455Z,6.11
2019-01-12T06:31:50.827Z,6.12
2019-01-12T06:33:52.246Z,6.13
2019-01-12T06:35:53.676Z,6.11
2019-01-12T06:37:55.059Z,6.14
2019-01-12T06:39:56.441Z,6.19
2019-01-12T06:41:57.862Z,6.20
2019-01-12T06:43:59.421Z,6.22
2019-01-12T06:46:00.807Z,6.24
2019-01-12T06:48:02.201Z,6.23
2019-01-12T06:50:08.429Z,6.18
2019-01-12T06:52:09.843Z,6.18
2019-01-12T06:54:11.270Z,6.15
2019-01-12T06:56:12.709Z,6.18
2019-01-12T06:58:14.149Z,6.26
2019-01-12T07:00:17.633Z,6.23
2019-01-12T07:02:19.077Z,6.18
2019-01-12T07:04:20.505Z,6.20
2019-01-12T07:06:21.891Z,6.23
2019-01-12T07:08:23.282Z,6.23
2019-01-12T07:10:24.898Z,6.27
2019-01-12T07:12:26.382Z,6.29
2019-01-12T07:14:27.751Z,6.27
2019-01-12T07:16:29.358Z,6.25
2019-01-12T07:18:30.754Z,6.28
2019-01-12T07:20:32.132Z,6.32
2019-01-12T07:22:33.561Z,6.30
2019-01-12T07:24:34.983Z,6.33
2019-01-12T07:26:36.420Z,6.30
2019-01-12T07:28:37.827Z,6.34
2019-01-12T07:30:39.196Z,6.38
2019-01-12T07:32:40.616Z,6.34
2019-01-12T07:34:42.011Z,6.34
2019-01-12T07:36:43.431Z,6.32
2019-01-12T07:38:44.827Z,6.33
2019-01-12T07:40:46.191Z,6.36
2019-01-12T07:42:47.630Z,6.39
2019-01-12T07:44:49.011Z,6.40
2019-01-12T07:46:50.526Z,6.41
2019-01-12T07:48:51.957Z,6.41
2019-01-12T07:50:53.334Z,6.43
2019-01-12T07:52:54.710Z,6.39
2019-01-12T07:54:56.185Z,6.40
2019-01-12T07:56:57.567Z,6.44
2019-01-12T07:58:58.986Z,6.47
2019-01-12T08:01:00.370Z,6.51
2019-01-12T08:03:01.775Z,6.48
2019-01-12T08:05:04.159Z,6.48
2019-01-12T08:07:05.761Z,6.48
2019-01-12T08:09:07.541Z,6.51
2019-01-12T08:11:08.914Z,6.56
2019-01-12T08:13:10.357Z,6.56
2019-01-12T08:15:12.036Z,6.59
2019-01-12T08:17:13.414Z,6.55
2019-01-12T08:19:14.835Z,6.53
2019-01-12T08:21:16.320Z,6.53
2019-01-12T08:23:17.687Z,6.48
2019-01-12T08:25:19.115Z,6.49
2019-01-12T08:27:20.599Z,6.48
2019-01-12T08:29:22.117Z,6.43
2019-01-12T08:31:23.490Z,6.47
2019-01-12T08:33:24.909Z,6.49
2019-01-12T08:35:26.300Z,6.47
2019-01-12T08:37:27.705Z,6.51
2019-01-12T08:39:29.141Z,6.48
2019-01-12T08:41:30.549Z,6.49
2019-01-12T08:43:32.319Z,6.39
2019-01-12T08:45:33.746Z,6.40
2019-01-12T08:47:35.099Z,6.45
2019-01-12T08:49:36.581Z,6.42
2019-01-12T08:51:37.958Z,6.39
2019-01-12T08:53:39.339Z,6.44
2019-01-12T08:55:40.835Z,6.48
2019-01-12T08:57:42.313Z,6.42
2019-01-12T08:59:43.684Z,6.41
2019-01-12T09:01:45.118Z,6.40
2019-01-12T09:03:46.518Z,6.42
2019-01-12T09:05:48.041Z,6.45
2019-01-12T09:07:49.830Z,6.48
2019-01-12T09:09:51.205Z,6.48
2019-01-12T09:11:52.551Z,6.48
2019-01-12T09:13:53.997Z,6.46
2019-01-12T09:15:55.402Z,6.49
2019-01-12T09:17:56.995Z,6.52
2019-01-12T09:19:58.377Z,6.55
2019-01-12T09:21:59.757Z,6.54
2019-01-12T09:24:01.408Z,6.61
2019-01-12T09:26:03.174Z,6.66
2019-01-12T09:28:04.557Z,6.65
2019-01-12T09:30:13.459Z,6.72
2019-01-12T09:32:15.057Z,6.80
2019-01-12T09:34:16.459Z,6.82
2019-01-12T09:36:17.833Z,6.90
2019-01-12T09:38:19.345Z,7.01
2019-01-12T09:40:20.798Z,7.01
2019-01-12T09:42:22.229Z,7.03
2019-01-12T09:44:23.663Z,7.07
2019-01-12T09:46:25.059Z,7.15
2019-01-12T09:48:26.621Z,7.21
2019-01-12T09:50:28.002Z,7.26
2019-01-12T09:52:29.361Z,7.31
2019-01-12T09:54:30.773Z,7.34
2019-01-12T09:56:32.173Z,7.34
2019-01-12T09:58:33.552Z,7.41
2019-01-12T10:00:35.146Z,7.45
2019-01-12T10:02:36.556Z,7.48
2019-01-12T10:04:37.940Z,7.59
2019-01-12T10:06:39.383Z,7.59
2019-01-12T10:08:40.760Z,7.61
2019-01-12T10:10:42.134Z,7.61
2019-01-12T10:12:43.571Z,7.59
2019-01-12T10:14:44.967Z,7.64
2019-01-12T10:16:46.368Z,7.67
2019-01-12T10:18:47.997Z,7.64
2019-01-12T10:20:49.383Z,7.66
2019-01-12T10:22:50.775Z,7.57
2019-01-12T10:24:52.507Z,7.56
2019-01-12T10:26:58.505Z,7.56
2019-01-12T10:28:57.492Z,7.50
2019-01-12T10:30:58.861Z,7.44
2019-01-12T10:33:00.258Z,7.44
2019-01-12T10:35:02.747Z,7.42
2019-01-12T10:37:04.136Z,7.41
2019-01-12T10:39:06.277Z,7.43
2019-01-12T10:41:07.664Z,7.48
2019-01-12T10:43:09.047Z,7.49
2019-01-12T10:45:13.891Z,7.43
2019-01-12T10:47:15.269Z,7.46
2019-01-12T10:49:16.647Z,7.47
2019-01-12T10:51:18.081Z,7.45
2019-01-12T10:53:19.454Z,7.55
2019-01-12T10:55:20.825Z,7.53
2019-01-12T10:57:22.318Z,7.46
2019-01-12T10:59:23.700Z,7.41
2019-01-12T11:01:25.095Z,7.39
2019-01-12T11:03:26.919Z,7.35
2019-01-12T11:05:28.619Z,7.36
2019-01-12T11:07:29.997Z,7.36
2019-01-12T11:09:31.430Z,7.32
2019-01-12T11:11:32.801Z,7.35
2019-01-12T11:13:34.190Z,7.26
2019-01-12T11:15:35.689Z,7.28
2019-01-12T11:17:37.067Z,7.27
2019-01-12T11:19:38.435Z,7.24
2019-01-12T11:21:39.863Z,7.25
2019-01-12T11:23:41.286Z,7.22
2019-01-12T11:25:43.283Z,7.27
2019-01-12T11:27:44.812Z,7.31
2019-01-12T11:29:46.265Z,7.34
2019-01-12T11:31:47.644Z,7.38
2019-01-12T11:33:49.014Z,7.43
2019-01-12T11:35:50.653Z,7.43
2019-01-12T11:37:52.027Z,7.54
2019-01-12T11:39:53.404Z,7.59
2019-01-12T11:41:55.945Z,7.65
2019-01-12T11:43:57.324Z,7.70
2019-01-12T11:45:58.700Z,7.68
2019-01-12T11:48:00.135Z,7.69
2019-01-12T11:50:02.087Z,7.75
2019-01-12T11:52:03.556Z,7.72
2019-01-12T11:54:04.935Z,7.68
2019-01-12T11:56:06.478Z,7.73
2019-01-12T11:58:07.868Z,7.70
2019-01-12T12:00:14.897Z,7.70
2019-01-12T12:02:16.376Z,7.75
2019-01-12T12:04:17.764Z,7.82
2019-01-12T12:06:19.208Z,7.81
2019-01-12T12:08:20.583Z,7.80
2019-01-12T12:10:22.065Z,7.81
2019-01-12T12:12:23.495Z,7.85
2019-01-12T12:14:24.925Z,7.93
2019-01-12T12:16:26.357Z,7.86
2019-01-12T12:18:27.999Z,7.86
2019-01-12T12:20:29.495Z,7.87
2019-01-12T12:22:30.867Z,7.88
2019-01-12T12:24:32.300Z,7.88
2019-01-12T12:26:33.682Z,7.84
2019-01-12T12:28:35.061Z,7.85
2019-01-12T12:30:36.669Z,7.90
2019-01-12T12:32:38.035Z,7.96
2019-01-12T12:34:39.422Z,7.94
2019-01-12T12:36:40.954Z,7.93
2019-01-12T12:38:42.339Z,7.85
2019-01-12T12:40:43.730Z,7.85
2019-01-12T12:42:45.140Z,7.83
2019-01-12T12:44:46.579Z,7.77
2019-01-12T12:46:48.020Z,7.69
2019-01-12T12:48:49.396Z,7.72
2019-01-12T12:50:50.835Z,7.71
2019-01-12T12:52:52.332Z,7.64
2019-01-12T12:54:53.705Z,7.67
2019-01-12T12:56:55.197Z,7.59
2019-01-12T12:58:56.657Z,7.62
2019-01-12T13:00:58.136Z,7.56
2019-01-12T13:02:59.511Z,7.59
2019-01-12T13:05:00.936Z,7.60
2019-01-12T13:07:03.414Z,7.51
2019-01-12T13:09:05.995Z,7.47
2019-01-12T13:11:07.452Z,7.49
2019-01-12T13:13:08.833Z,7.44
2019-01-12T13:15:10.769Z,7.44
2019-01-12T13:17:12.476Z,7.47
2019-01-12T13:19:13.876Z,7.45
2019-01-12T13:21:15.246Z,7.40
2019-01-12T13:23:16.686Z,7.42
2019-01-12T13:25:18.269Z,7.34
2019-01-12T13:27:19.650Z,7.35
2019-01-12T13:29:21.068Z,7.33
2019-01-12T13:31:22.560Z,7.34
2019-01-12T13:33:23.934Z,7.34
2019-01-12T13:35:25.329Z,7.34
2019-01-12T13:37:26.769Z,7.31
2019-01-12T13:39:32.018Z,7.29
2019-01-12T13:41:31.519Z,7.30
2019-01-12T13:43:32.902Z,7.32
2019-01-12T13:45:34.392Z,7.27
2019-01-12T13:47:35.850Z,7.25
2019-01-12T13:49:37.259Z,7.24
2019-01-12T13:51:38.742Z,7.30
2019-01-12T13:53:40.190Z,7.28
2019-01-12T13:55:41.559Z,7.28
2019-01-12T13:57:47.486Z,7.27
2019-01-12T13:59:46.829Z,7.24
2019-01-12T14:01:48.217Z,7.24
2019-01-12T14:03:49.877Z,7.19
2019-01-12T14:05:51.323Z,7.19
2019-01-12T14:07:56.624Z,7.10
2019-01-12T14:09:56.040Z,7.01
2019-01-12T14:11:57.430Z,6.90
2019-01-12T14:13:59.072Z,6.89
2019-01-12T14:16:00.441Z,6.89
2019-01-12T14:18:01.933Z,6.85
2019-01-12T14:20:09.113Z,6.82
2019-01-12T14:22:11.689Z,6.75
2019-01-12T14:24:13.441Z,6.74
2019-01-12T14:26:15.177Z,6.75
2019-01-12T14:28:17.065Z,6.75
2019-01-12T14:30:19.049Z,6.75
2019-01-12T14:32:22.664Z,6.73
2019-01-12T14:34:24.404Z,6.67
2019-01-12T14:36:26.093Z,6.63
2019-01-12T14:38:27.827Z,6.61
2019-01-12T14:40:30.820Z,6.60
2019-01-12T14:42:32.505Z,6.58
2019-01-12T14:44:34.446Z,6.50
2019-01-12T14:46:36.132Z,6.45
2019-01-12T14:48:37.812Z,6.51
2019-01-12T14:50:39.572Z,6.46
2019-01-12T14:52:41.778Z,6.51
2019-01-12T14:54:43.470Z,6.43
2019-01-12T14:56:45.204Z,6.41
2019-01-12T14:58:47.029Z,6.38
2019-01-12T15:00:48.730Z,6.44
2019-01-12T15:02:50.526Z,6.38
2019-01-12T15:04:52.351Z,6.40
2019-01-12T15:06:54.016Z,6.28
2019-01-12T15:08:55.693Z,6.21
2019-01-12T15:10:57.636Z,6.22
2019-01-12T15:12:59.513Z,6.16
2019-01-12T15:15:01.515Z,6.15
2019-01-12T15:17:03.278Z,6.19
2019-01-12T15:19:04.949Z,6.19
2019-01-12T15:21:06.831Z,6.21
2019-01-12T15:23:08.787Z,6.18
2019-01-12T15:25:11.439Z,6.20
2019-01-12T15:27:13.117Z,6.15
2019-01-12T15:29:15.045Z,6.14
2019-01-12T15:31:16.810Z,6.20
2019-01-12T15:33:18.647Z,6.16
2019-01-12T15:35:22.841Z,6.14
2019-01-12T15:37:24.684Z,6.08
2019-01-12T15:39:26.382Z,6.07
2019-01-12T15:41:29.759Z,6.09
2019-01-12T15:43:31.504Z,6.08
2019-01-12T15:45:33.277Z,6.15
2019-01-12T15:47:35.069Z,6.16
2019-01-12T15:49:36.800Z,6.14
2019-01-12T15:51:38.588Z,6.06
2019-01-12T15:53:40.468Z,6.20
2019-01-12T15:55:42.248Z,6.12
2019-01-12T15:57:43.932Z,6.16
2019-01-12T15:59:45.688Z,6.15
2019-01-12T16:01:47.813Z,6.13
2019-01-12T16:03:49.449Z,6.16
2019-01-12T16:05:51.279Z,6.22
2019-01-12T16:07:53.438Z,6.16
2019-01-12T16:09:55.102Z,6.21
2019-01-12T16:11:56.830Z,6.23
2019-01-12T16:13:58.775Z,6.20
2019-01-12T16:16:00.478Z,6.16
2019-01-12T16:18:02.240Z,6.17
2019-01-12T16:20:09.589Z,6.23
2019-01-12T16:22:11.314Z,6.22
2019-01-12T16:24:13.067Z,6.23
2019-01-12T16:26:14.699Z,6.30
2019-01-12T16:28:23.072Z,6.24
2019-01-12T16:30:21.642Z,6.20
2019-01-12T16:32:23.374Z,6.18
2019-01-12T16:34:25.061Z,6.19
2019-01-12T16:36:26.786Z,6.24
2019-01-12T16:38:28.504Z,6.19
2019-01-12T16:40:30.191Z,6.16
2019-01-12T16:42:32.035Z,6.23
2019-01-12T16:44:33.898Z,6.18
2019-01-12T16:46:35.455Z,6.21
2019-01-12T16:48:36.846Z,6.21
2019-01-12T16:50:38.418Z,6.17
2019-01-12T16:52:39.915Z,6.19
2019-01-12T16:54:41.403Z,6.15
2019-01-12T16:56:42.866Z,6.21
2019-01-12T16:58:44.334Z,6.19
2019-01-12T17:00:45.718Z,6.18
2019-01-12T17:02:47.095Z,6.15
2019-01-12T17:04:48.619Z,6.14
2019-01-12T17:06:50.217Z,6.12
2019-01-12T17:08:51.614Z,6.06
2019-01-12T17:10:53.037Z,6.07
2019-01-12T17:12:54.439Z,6.06
2019-01-12T17:14:55.821Z,6.08
2019-01-12T17:16:57.205Z,6.07
2019-01-12T17:18:58.661Z,6.08
2019-01-12T17:21:00.130Z,6.12
2019-01-12T17:23:01.624Z,6.11
2019-01-12T17:25:05.402Z,6.07
2019-01-12T17:27:06.826Z,6.07
2019-01-12T17:29:08.225Z,6.08
2019-01-12T17:31:09.611Z,6.09
2019-01-12T17:33:11.123Z,6.13
2019-01-12T17:35:13.010Z,6.15
2019-01-12T17:37:14.588Z,6.16
2019-01-12T17:39:16.040Z,6.19
2019-01-12T17:41:17.439Z,6.21
2019-01-12T17:43:18.816Z,6.23
2019-01-12T17:45:22.872Z,6.21
2019-01-12T17:47:24.256Z,6.23
2019-01-12T17:49:25.697Z,6.21
2019-01-12T17:51:27.099Z,6.26
2019-01-12T17:53:28.569Z,6.24
2019-01-12T17:55:29.921Z,6.22
2019-01-12T17:57:31.353Z,6.27
2019-01-12T17:59:32.820Z,6.25
2019-01-12T18:01:34.192Z,6.26
2019-01-12T18:03:35.543Z,6.30
2019-01-12T18:05:36.973Z,6.31
2019-01-12T18:07:38.404Z,6.31
2019-01-12T18:09:40.014Z,6.31
2019-01-12T18:11:41.437Z,6.33
2019-01-12T18:13:42.842Z,6.34
2019-01-12T18:15:44.383Z,6.34
2019-01-12T18:17:45.828Z,6.26
2019-01-12T18:19:47.223Z,6.34
2019-01-12T18:21:48.601Z,6.35
2019-01-12T18:23:50.047Z,6.36
2019-01-12T18:25:51.497Z,6.35
2019-01-12T18:27:53.028Z,6.38
2019-01-12T18:29:54.477Z,6.36
2019-01-12T18:31:55.841Z,6.39
2019-01-12T18:33:57.229Z,6.41
2019-01-12T18:35:58.662Z,6.42
2019-01-12T18:38:00.054Z,6.38
2019-01-12T18:40:03.449Z,6.41
2019-01-12T18:42:04.907Z,6.37
2019-01-12T18:44:06.298Z,6.40
2019-01-12T18:46:12.062Z,6.42
2019-01-12T18:48:10.993Z,6.41
2019-01-12T18:50:19.805Z,6.42
2019-01-12T18:52:21.197Z,6.39
2019-01-12T18:54:22.620Z,6.42
2019-01-12T18:56:24.009Z,6.46
2019-01-12T18:58:25.405Z,6.47
2019-01-12T19:00:27.746Z,6.50
2019-01-12T19:02:29.137Z,6.56
2019-01-12T19:04:30.544Z,6.57
2019-01-12T19:06:32.028Z,6.59
2019-01-12T19:08:33.512Z,6.57
2019-01-12T19:10:34.892Z,6.56
2019-01-12T19:12:36.335Z,6.61
2019-01-12T19:14:37.795Z,6.63
2019-01-12T19:16:39.167Z,6.60
2019-01-12T19:18:40.839Z,6.63
2019-01-12T19:20:42.588Z,6.63
2019-01-12T19:22:44.470Z,6.66
2019-01-12T19:24:45.884Z,6.69
2019-01-12T19:26:47.394Z,6.73
2019-01-12T19:28:48.972Z,6.74
2019-01-12T19:30:50.355Z,6.78
2019-01-12T19:32:51.827Z,6.78
2019-01-12T19:34:53.540Z,6.78
2019-01-12T19:36:54.926Z,6.79
2019-01-12T19:38:56.349Z,6.83
2019-01-12T19:40:57.781Z,6.86
2019-01-12T19:42:59.155Z,6.88
2019-01-12T19:45:00.538Z,6.86
2019-01-12T19:47:01.999Z,6.87
2019-01-12T19:49:03.454Z,6.92
2019-01-12T19:51:04.895Z,6.92
2019-01-12T19:53:06.280Z,6.89
2019-01-12T19:55:07.752Z,6.89
2019-01-12T19:57:09.194Z,6.93
2019-01-12T19:59:13.831Z,6.97
2019-01-12T20:01:13.862Z,6.93
2019-01-12T20:03:15.302Z,6.97
2019-01-12T20:05:16.777Z,6.95
2019-01-12T20:07:18.163Z,6.93
2019-01-12T20:09:19.595Z,6.95
2019-01-12T20:11:20.994Z,7.00
2019-01-12T20:13:22.363Z,7.00
2019-01-12T20:15:23.900Z,7.01
2019-01-12T20:17:25.262Z,7.00
2019-01-12T20:19:26.648Z,7.06
2019-01-12T20:21:28.255Z,7.01
2019-01-12T20:23:29.660Z,7.06
2019-01-12T20:25:31.124Z,7.07
2019-01-12T20:27:33.725Z,7.04
2019-01-12T20:29:35.254Z,7.05
2019-01-12T20:32:03.551Z,7.06
2019-01-12T20:34:13.513Z,7.09
2019-01-12T20:36:42.617Z,7.09
2019-01-12T20:38:55.429Z,7.11
2019-01-12T20:41:17.815Z,7.17
2019-01-12T20:43:45.232Z,7.18
2019-01-12T20:45:54.963Z,7.19
2019-01-12T20:48:18.597Z,7.22
2019-01-12T20:50:34.534Z,7.19
2019-01-12T20:53:02.616Z,7.20
2019-01-12T20:55:21.566Z,7.18
2019-01-12T20:57:37.530Z,7.18
2019-01-12T21:00:09.668Z,7.15
2019-01-12T21:02:22.625Z,7.12
2019-01-12T21:04:50.766Z,7.12
2019-01-12T21:07:14.230Z,7.12
2019-01-12T21:09:33.245Z,7.12
2019-01-12T21:12:04.172Z,7.11
2019-01-12T21:14:32.033Z,7.11
2019-01-12T21:16:34.753Z,7.11
2019-01-12T21:18:36.313Z,7.10
2019-01-12T21:20:37.690Z,7.13
2019-01-12T21:22:39.069Z,7.13
2019-01-12T21:24:40.532Z,7.09
2019-01-12T21:26:41.912Z,7.10
2019-01-12T21:28:43.307Z,7.12
2019-01-12T21:30:44.755Z,7.13
2019-01-12T21:32:46.136Z,7.13
2019-01-12T21:34:47.585Z,7.12
2019-01-12T21:36:49.052Z,7.08
2019-01-12T21:38:50.444Z,7.10
2019-01-12T21:40:51.825Z,7.07
2019-01-12T21:42:53.270Z,7.09
2019-01-12T21:44:54.652Z,7.12
2019-01-12T21:46:56.036Z,7.11
2019-01-12T21:48:57.468Z,7.11
2019-01-12T21:50:59.154Z,7.09
2019-01-12T21:53:00.555Z,7.11
2019-01-12T21:55:02.043Z,7.10
2019-01-12T21:57:03.574Z,7.07
2019-01-12T21:59:05.133Z,7.07
2019-01-12T22:01:06.626Z,7.08
2019-01-12T22:03:08.029Z,7.05
2019-01-12T22:05:10.987Z,7.04
2019-01-12T22:07:12.362Z,7.04
2019-01-12T22:09:13.749Z,7.06
2019-01-12T22:11:15.184Z,7.06
2019-01-12T22:13:16.569Z,7.07
2019-01-12T22:15:18.056Z,7.09
2019-01-12T22:17:19.705Z,7.07
2019-01-12T22:19:21.085Z,7.08
2019-01-12T22:21:22.463Z,7.07
2019-01-12T22:23:23.905Z,7.08
2019-01-12T22:25:25.326Z,7.09
2019-01-12T22:27:26.788Z,7.09
2019-01-12T22:29:28.334Z,7.10
2019-01-12T22:31:29.726Z,7.10
2019-01-12T22:33:31.114Z,7.11
2019-01-12T22:35:32.580Z,7.10
2019-01-12T22:37:33.937Z,7.11
2019-01-12T22:39:35.347Z,7.13
2019-01-12T22:41:36.749Z,7.15
2019-01-12T22:43:38.132Z,7.16
2019-01-12T22:45:39.503Z,7.15
2019-01-12T22:47:40.980Z,7.12
2019-01-12T22:49:42.335Z,7.12
2019-01-12T22:51:43.909Z,7.10
2019-01-12T22:53:45.343Z,7.05
2019-01-12T22:55:46.723Z,7.03
2019-01-12T22:57:48.218Z,7.04
2019-01-12T22:59:49.566Z,7.01
2019-01-12T23:01:52.163Z,7.02
2019-01-12T23:03:53.639Z,7.05
2019-01-12T23:05:54.993Z,7.04
2019-01-12T23:07:56.419Z,7.08
2019-01-12T23:09:57.863Z,7.09
2019-01-12T23:11:59.210Z,7.12
2019-01-12T23:14:00.626Z,7.12
2019-01-12T23:16:02.591Z,7.16
2019-01-12T23:18:04.276Z,7.14
2019-01-12T23:20:07.048Z,7.16
2019-01-12T23:22:08.900Z,7.19
2019-01-12T23:24:10.292Z,7.21
2019-01-12T23:26:11.654Z,7.19
2019-01-12T23:28:13.117Z,7.15
2019-01-12T23:30:16.461Z,7.19
2019-01-12T23:32:17.838Z,7.21
2019-01-12T23:34:19.885Z,7.24
2019-01-12T23:36:21.407Z,7.21
2019-01-12T23:38:22.945Z,7.14
2019-01-12T23:40:24.383Z,7.21
2019-01-12T23:42:25.882Z,7.23
2019-01-12T23:44:27.236Z,7.21
2019-01-12T23:46:28.716Z,7.20
2019-01-12T23:48:30.078Z,7.24
2019-01-12T23:50:31.455Z,7.26
2019-01-12T23:52:32.926Z,7.26
2019-01-12T23:54:34.352Z,7.23
2019-01-12T23:56:35.754Z,7.23
2019-01-12T23:58:37.104Z,7.27
